KTIX/TIX METAR and TAF weather

Enter ICAO airport designator
Station Type Date Time Source
KTIX METAR 2020/11/26 23:54 UTC NOAA

KTIX 262354Z 00000KT 7SM CLR 24/20 A3012


Station Type Date Time Source
KTIX Decoded METAR 2020/11/26 23:54 UTC NOAA

Titusville, FL, United States (KTIX) 28-31N 080-48W
Nov 26, 2020 - 06:54 PM EST / 2020.11.26 2354 UTC
Wind: Calm:0
Visibility: 7 mile(s):0
Sky conditions: clear
Temperature: 75 F (24 C)
Dew Point: 68 F (20 C)
Relative Humidity: 78%
Pressure (altimeter): 30.12 in. Hg (1019 hPa)
ob: KTIX 262354Z 00000KT 7SM CLR 24/20 A3012
cycle: 0

Station Type Date Time Source
KTIX TAF 2020/11/26 18:45 UTC NOAA

TAF KTIX 261743Z 2618/2718 11006KT P6SM SCT040
FM270400 VRB02KT P6SM FEW040 SCT120 SCT250
TEMPO 2710/2712 4SM BR SCT010
FM271400 08005KT P6SM SCT040 SCT120 SCT250

Example: see airport list